Latest Coastal Weather Observations for Cape Willoughby

IDS60701

Issued at 3:31 am CST Wednesday 29 July 2015 (issued every 10 minutes, with the page automatically refreshed every 10 minutes)

About coastal observations | Map of coastal stations | Coastal observations for SA | Marine services | Other Formats
Station Details ID: 022803 Name: CAPE WILLOUGHBY Lat: -35.84 Lon: 138.13 Height: 55.0 m
Data from the previous 72 hours. | See also: Recent months at Cape Willoughby
Date/Time
CST
Temp

°C
Wind Pressure Rain
since 9am
mm
Weather Cloud Vis
km
Sea
Height
m
Swell
Dir
 
Speed
knots
Gust
knots
hPa Trend Height
m
Period
s
Dir
29/03:30am 10.4 N 14 16 1030.5 - 0.0 - - - - - - -
29/03:00am 10.6 N 16 19 1030.0 - 0.0 - - - - - - -
29/02:30am 10.7 NNE 15 19 1030.6 - 0.0 - - - - - - -
29/02:00am 10.7 NNE 15 17 1030.8 - 0.0 - - - - - - -
29/01:30am 10.8 N 14 16 1031.1 - 0.0 - - - - - - -
29/01:00am 10.7 NNE 13 15 1031.5 - 0.0 - - - - - - -
29/12:30am 10.6 N 11 12 1032.1 - 0.0 - - - - - - -
29/12:00am 10.3 N 9 10 1032.3 - 0.0 - - - - - - -
 
Date/Time
CST
Temp

°C
Wind Pressure Rain
since 9am
mm
Weather Cloud Vis
km
Sea
Height
m
Swell
Dir
 
Speed
knots
Gust
knots
hPa Trend Height
m
Period
s
Dir
28/11:30pm 9.9 N 11 13 1032.1 - 0.0 - - - - - - -
28/11:00pm 9.3 N 7 8 1032.7 - 0.0 - - - - - - -
28/10:30pm 9.5 NW 8 10 1033.6 - 0.0 - - - - - - -
28/10:00pm 9.7 NNW 9 11 1033.4 - 0.0 - - - - - - -
28/09:30pm 10.1 NNW 10 13 1033.6 - 0.0 - - - - - - -
28/09:00pm 10.3 NNW 14 16 1033.9 - 0.0 - - - - - - -
28/08:30pm 10.3 N 15 18 1033.9 - 0.0 - - - - - - -
28/08:00pm 10.3 N 15 17 1034.1 - 0.0 - - - - - - -
28/07:30pm 10.2 N 16 19 1034.0 - 0.0 - - - - - - -
28/07:00pm 10.3 N 15 17 1034.0 - 0.0 - - - - - - -
28/06:30pm 10.4 NNW 14 16 1034.2 - 0.0 - - - - - - -
28/06:00pm 10.5 NNW 15 18 1034.0 - 0.0 - - - - - - -
28/05:30pm 10.7 NNW 15 18 1034.1 - 0.0 - - - - - - -
28/05:00pm 10.9 NNW 15 19 1034.1 - 0.0 - - - - - - -
28/04:30pm 11.3 NNW 12 14 1034.4 - 0.0 - - - - - - -
28/04:00pm 12.0 NNW 11 17 1034.3 - 0.0 - - - - - - -
28/03:30pm 11.5 NNW 12 16 1034.4 - 0.0 - - - - - - -
28/03:00pm 12.4 NNW 14 18 1034.5 - 0.0 - - - - - - -
28/02:30pm 12.7 N 14 17 1034.3 - 0.0 - - - - - - -
28/02:00pm 12.9 N 15 17 1034.5 - 0.0 - - - - - - -
28/01:30pm 13.0 NNW 14 17 1034.9 - 0.0 - - - - - - -
28/01:00pm 12.4 NNW 17 19 1035.3 - 0.0 - - - - - - -
28/12:30pm 12.6 NNW 15 18 1035.9 - 0.0 - - - - - - -
28/12:00pm 13.0 NNW 13 16 1036.3 - 0.0 - - - - - - -
28/11:30am 12.9 N 14 17 1036.6 - 0.0 - - - - - - -
28/11:00am 12.3 NNW 10 14 1037.4 - 0.0 - - - - - - -
28/10:30am 11.4 NNW 10 12 1037.4 - 0.0 - - - - - - -
28/10:00am 11.4 NNW 9 12 1037.3 - 0.0 - - - - - - -
28/09:30am 11.2 NNW 9 12 1037.1 - 0.0 - - - - - - -
28/09:00am 10.6 NW 8 10 1037.1 - 1.0 - - - - - - -
28/08:30am 9.7 NW 10 11 1036.6 - 1.0 - - - - - - -
28/08:00am 8.5 NW 10 11 1036.5 - 1.0 - - - - - - -
28/07:30am 7.9 NW 12 13 1036.6 - 1.0 - - - - - - -
28/07:00am 7.9 WNW 12 13 1036.5 - 1.0 - - - - - - -
28/06:30am 8.1 WNW 12 12 1036.5 - 1.0 - - - - - - -
28/06:00am 8.2 WNW 12 13 1036.3 - 1.0 - - - - - - -
28/05:30am 8.0 WNW 12 13 1035.9 - 1.0 - - - - - - -
28/05:00am 8.3 WNW 12 13 1036.0 - 1.0 - - - - - - -
28/04:30am 8.2 WNW 12 13 1035.5 - 1.0 - - - - - - -
28/04:00am 8.2 WNW 12 13 1035.5 - 1.0 - - - - - - -
28/03:30am 7.9 WNW 12 13 1035.5 - 1.0 - - - - - - -
28/03:00am 8.0 WNW 13 15 1035.5 - 1.0 - - - - - - -
28/02:30am 8.2 WNW 12 13 1035.6 - 1.0 - - - - - - -
28/02:00am 8.0 WNW 12 14 1035.7 - 1.0 - - - - - - -
28/01:30am 8.0 WNW 12 13 1035.7 - 1.0 - - - - - - -
28/01:00am 8.0 WNW 11 12 1035.5 - 1.0 - - - - - - -
28/12:30am 7.7 WNW 11 12 1035.4 - 1.0 - - - - - - -
28/12:00am 7.8 WNW 11 12 1035.5 - 1.0 Recent precip. - - - - - -
 
Date/Time
CST
Temp

°C
Wind Pressure Rain
since 9am
mm
Weather Cloud Vis
km
Sea
Height
m
Swell
Dir
 
Speed
knots
Gust
knots
hPa Trend Height
m
Period
s
Dir
27/11:30pm 7.9 WNW 8 9 1035.5 - 0.8 - - - - - - -
27/11:00pm 8.2 W 9 11 1035.6 - 0.8 - - - - - - -
27/10:30pm 8.3 WNW 9 12 1035.4 - 0.8 - - - - - - -
27/10:00pm 8.7 W 9 12 1035.6 - 0.8 - - - - - - -
27/09:30pm 8.9 W 10 12 1035.7 - 0.8 - - - - - - -
27/09:00pm 9.0 W 8 11 1035.7 - 0.6 - - - - - - -
27/08:30pm 8.6 WNW 8 9 1035.5 - 0.6 - - - - - - -
27/08:00pm 9.3 W 9 11 1035.5 - 0.6 - - - - - - -
27/07:30pm 9.1 WNW 7 9 1035.3 - 0.6 - - - - - - -
27/07:00pm 9.1 WNW 7 8 1035.2 - 0.4 - - - - - - -
27/06:30pm 9.3 WNW 8 9 1035.0 - 0.4 - - - - - - -
27/06:00pm 9.7 NW 9 11 1034.8 - 0.4 - - - - - - -
27/05:30pm 10.0 NW 6 7 1034.6 - 0.4 - - - - - - -
27/05:00pm 10.3 NW 4 5 1034.5 - 0.4 - - - - - - -
27/04:30pm 11.1 WNW 5 7 1034.3 - 0.4 - - - - - - -
27/04:00pm 10.7 SW 7 12 1034.3 - 0.4 - - - - - - -
27/03:30pm 11.4 WSW 9 12 1034.2 - 0.4 - - - - - - -
27/03:00pm 11.9 SW 6 8 1034.2 - 0.4 - - - - - - -
27/02:30pm 11.2 WSW 12 18 1034.0 - 0.4 - - - - - - -
27/02:00pm 11.3 WSW 14 20 1033.9 - 0.4 - - - - - - -
27/01:30pm 11.4 W 10 13 1033.8 - 0.4 - - - - - - -
27/01:00pm 11.5 SW 8 15 1033.9 - 0.4 - - - - - - -
27/12:30pm 11.1 WSW 4 8 1034.2 - 0.4 - - - - - - -
27/12:00pm 10.5 SW 9 13 1034.4 - 0.4 Recent precip. - - - - - -
27/11:30am 10.5 SSW 6 12 1034.4 - 0.4 - - - - - - -
27/11:00am 11.3 WNW 10 12 1034.6 - 0.0 - - - - - - -
27/10:30am 9.8 WNW 13 16 1034.7 - 0.0 - - - - - - -
27/10:00am 10.0 NW 4 6 1034.5 - 0.0 - - - - - - -
27/09:30am 9.1 WSW 8 11 1034.4 - 0.0 - - - - - - -
27/09:00am 9.3 WNW 11 14 1033.7 - 2.8 - - - - - - -
27/08:30am 8.8 W 11 15 1033.4 - 2.8 - - - - - - -
27/08:00am 7.8 WNW 10 13 1033.0 - 2.8 - - - - - - -
27/07:30am 7.7 WNW 11 14 1032.7 - 2.8 - - - - - - -
27/07:00am 7.8 W 9 12 1032.2 - 2.8 - - - - - - -
27/06:30am 7.1 WNW 10 12 1032.0 - 2.8 - - - - - - -
27/06:00am 7.2 WNW 10 12 1031.7 - 2.8 Recent precip. - - - - - -
27/05:30am 8.1 WSW 11 15 1031.3 - 2.8 - - - - - - -
27/05:00am 7.0 WNW 11 13 1031.1 - 2.4 - - - - - - -
27/04:30am 6.7 W 10 12 1030.8 - 2.4 - - - - - - -
27/04:00am 7.5 W 9 14 1030.8 - 2.4 - - - - - - -
27/03:30am 8.0 W 10 13 1030.7 - 2.4 - - - - - - -
27/03:00am 7.3 W 12 15 1030.6 - 2.4 - - - - - - -
27/02:30am 7.0 WNW 11 14 1030.4 - 2.4 - - - - - - -
27/02:00am 7.1 WNW 9 13 1030.2 - 2.4 - - - - - - -
27/01:30am 6.9 WNW 10 12 1030.0 - 2.4 - - - - - - -
27/01:00am 8.0 WSW 8 10 1030.0 - 2.2 - - - - - - -
27/12:30am 8.2 WSW 12 19 1030.2 - 2.2 - - - - - - -
27/12:00am 9.4 SSW 14 17 1029.8 - 2.0 - - - - - - -
 
Date/Time
CST
Temp

°C
Wind Pressure Rain
since 9am
mm
Weather Cloud Vis
km
Sea
Height
m
Swell
Dir
 
Speed
knots
Gust
knots
hPa Trend Height
m
Period
s
Dir
26/11:30pm 9.3 SW 8 11 1029.8 - 2.0 - - - - - - -
26/11:00pm 8.9 SSW 14 19 1029.6 - 2.0 - - - - - - -
26/10:30pm 9.1 WSW 10 13 1029.2 - 1.8 - - - - - - -
26/10:00pm 10.1 SW 13 18 1029.0 - 1.8 - - - - - - -
26/09:30pm 10.2 SSW 11 19 1028.8 - 1.8 - - - - - - -
26/09:20pm 10.1 SSW 17 27 1028.8 - 1.8 - - - - - - -
26/09:00pm 10.5 SSW 12 18 1028.3 - 1.8 - - - - - - -
26/08:30pm 10.0 S 17 25 1028.1 - 1.8 - - - - - - -
26/08:19pm 10.1 S 15 25 1027.8 - 1.8 - - - - - - -
26/08:00pm 10.4 SSW 12 19 1027.7 - 1.8 - - - - - - -
26/07:30pm 10.0 SSW 15 23 1027.3 - 1.8 - - - - - - -
26/07:00pm 9.9 SSW 15 21 1026.9 - 1.8 - - - - - - -
26/06:30pm 9.9 SSW 20 26 1026.4 - 1.8 - - - - - - -
26/06:17pm 10.3 SW 15 27 1025.9 - 1.8 - - - - - - -
26/06:00pm 9.8 SW 15 21 1025.9 - 1.8 Recent precip. - - - - - -
26/05:30pm 9.6 SW 20 26 1025.4 - 1.8 - - - - - - -
26/05:00pm 9.4 SW 24 35 1024.9 - 1.6 - - - - - - -
26/04:57pm 10.2 SW 21 32 1024.9 - 1.6 - - - - - - -
26/04:30pm 10.3 SW 22 26 1024.7 - 1.6 - - - - - - -
26/04:00pm 10.1 SSW 23 30 1024.3 - 1.6 - - - - - - -
26/03:30pm 9.9 SW 21 28 1023.9 - 1.6 - - - - - - -
26/03:03pm 9.4 WSW 22 33 1023.9 - 1.4 - - - - - - -
26/03:00pm 10.3 WSW 20 27 1024.0 - 1.4 - - - - - - -
26/02:30pm 10.4 WSW 18 22 1023.6 - 1.4 - - - - - - -
26/02:00pm 10.2 SW 21 31 1023.2 - 1.4 - - - - - - -
26/01:30pm 9.0 SW 25 37 1023.2 - 1.4 - - - - - - -
26/01:24pm 9.3 SW 21 37 1022.8 - 0.8 - - - - - - -
26/01:22pm 10.2 SW 16 28 1023.2 - 0.8 - - - - - - -
26/01:00pm 9.1 WSW 16 21 1023.3 - 0.8 - - - - - - -
26/12:31pm 8.2 W 17 27 1023.3 - 0.8 - - - - - - -
26/12:30pm 8.4 W 16 26 1023.3 - 0.8 - - - - - - -
26/12:08pm 9.0 WSW 24 39 1023.3 - 0.4 - - - - - - -
26/12:06pm 9.4 WSW 23 39 1023.0 - 0.4 - - - - - - -
26/12:04pm 10.2 WSW 20 31 1023.2 - 0.4 - - - - - - -
26/12:00pm 10.7 WSW 19 26 1023.1 - 0.4 - - - - - - -
26/11:30am 10.6 SW 21 28 1022.9 - 0.4 - - - - - - -
26/11:00am 10.6 SW 20 27 1022.8 - 0.4 - - - - - - -
26/10:30am 9.8 SW 20 27 1022.4 - 0.4 - - - - - - -
26/10:13am 9.6 WSW 21 29 1022.2 - 0.4 - - - - - - -
26/10:02am 8.6 W 16 26 1022.2 - 0.4 - - - - - - -
26/10:00am 8.4 W 15 22 1022.2 - 0.4 - - - - - - -
26/09:30am 7.9 W 14 29 1022.1 - 0.2 - - - - - - -
26/09:29am 8.0 WNW 14 29 1022.1 - 0.2 - - - - - - -
26/09:00am 7.6 NW 14 19 1021.4 - 15.0 - - - - - - -
26/08:30am 8.1 WSW 16 22 1021.1 - 15.0 - - - - - - -
26/08:29am 8.1 WSW 16 22 1021.1 - 15.0 - - - - - - -
26/08:20am 8.3 SW 24 34 1020.7 - 15.0 - - - - - - -
26/08:12am 8.5 SW 20 34 1020.3 - 15.0 - - - - - - -
26/08:09am 8.8 WSW 15 27 1020.6 - 15.0 - - - - - - -
26/08:00am 7.9 WSW 15 21 1020.6 - 15.0 - - - - - - -
26/07:30am 6.4 WNW 12 15 1020.2 - 15.0 - - - - - - -
26/07:00am 6.9 W 11 16 1019.5 - 15.0 - - - - - - -
26/06:30am 6.6 WNW 16 20 1018.7 - 15.0 - - - - - - -
26/06:00am 6.9 WNW 12 19 1018.1 - 15.0 Recent precip. - - - - - -
26/05:30am 6.9 W 10 16 1017.7 - 14.8 - - - - - - -
26/05:00am 6.4 WNW 13 17 1017.2 - 14.8 - - - - - - -
26/04:30am 6.0 WNW 15 19 1017.0 - 14.8 - - - - - - -
26/04:00am 6.6 WNW 15 19 1016.8 - 14.6 - - - - - - -
26/03:37am 6.7 W 20 31 1016.6 - 14.6 - - - - - - -

Other Formats:

Comma delimited format used in spreadsheet applications
http://www.bom.gov.au/fwo/IDS60701/IDS60701.94822.axf

JavaScript Object Notation format (JSON) in row-major order
http://www.bom.gov.au/fwo/IDS60701/IDS60701.94822.json